Time;durP1;ratioP1;P1;durP2;ratioP2;P2;SDS_P1;SDS_P2;PMS_P1;PMS_P2;Temp;Humidity;BMP_temperature;BMP_pressure;BME280_temperature;BME280_humidity;BME280_pressure;Samples;Min_cycle;Max_cycle;Signal;HPM_P1;HPM_P2
2023/02/14 00:02:21;;;;;;;9.30;8.23;;;7.20;93.30;;;;;;5074853;28;20514;-57
2023/02/14 00:04:48;;;;;;;10.70;8.80;;;7.20;93.50;;;;;;5074913;28;20472;-57
2023/02/14 00:07:15;;;;;;;10.63;8.30;;;7.20;93.60;;;;;;5075225;28;20463;-57
2023/02/14 00:09:41;;;;;;;11.67;8.63;;;7.20;93.50;;;;;;5075331;28;20455;-57
2023/02/14 00:12:08;;;;;;;9.77;8.27;;;7.20;93.40;;;;;;5075252;28;21011;-57
2023/02/14 00:17:21;;;;;;;9.93;8.80;;;7.10;93.30;;;;;;5073751;28;20488;-57
2023/02/14 00:19:47;;;;;;;9.57;8.17;;;7.10;93.20;;;;;;5073840;28;20825;-57
2023/02/14 00:22:14;;;;;;;9.60;8.10;;;7.10;93.10;;;;;;5073608;28;20457;-57
2023/02/14 00:24:41;;;;;;;16.60;9.20;;;7.10;93.00;;;;;;5074048;28;20465;-57
2023/02/14 00:27:07;;;;;;;11.57;9.23;;;7.00;93.20;;;;;;5073791;28;20451;-57
2023/02/14 00:29:35;;;;;;;11.33;9.57;;;7.00;93.40;;;;;;5074107;28;20484;-58
2023/02/14 00:32:03;;;;;;;15.87;9.70;;;7.00;93.50;;;;;;5073913;28;20516;-58
2023/02/14 00:34:32;;;;;;;13.47;10.63;;;7.00;93.70;;;;;;5073681;28;20464;-58
2023/02/14 00:36:59;;;;;;;15.20;9.67;;;7.00;93.90;;;;;;5073608;28;20455;-57
2023/02/14 00:39:26;;;;;;;12.13;9.80;;;7.00;94.00;;;;;;5073560;28;20443;-58
2023/02/14 00:41:52;;;;;;;14.40;10.87;;;7.00;94.10;;;;;;5074077;28;20444;-57
2023/02/14 00:44:19;;;;;;;14.90;9.03;;;7.00;94.10;;;;;;5073206;28;20472;-58
2023/02/14 00:46:47;;;;;;;11.67;9.97;;;7.00;94.10;;;;;;5073471;28;20433;-58
2023/02/14 00:49:14;;;;;;;13.03;8.67;;;6.90;93.90;;;;;;5073135;28;20813;-58
2023/02/14 00:51:41;;;;;;;11.10;7.60;;;6.90;93.80;;;;;;5073468;28;20448;-58
2023/02/14 00:54:07;;;;;;;8.73;6.60;;;6.80;93.40;;;;;;5073348;28;20452;-58
2023/02/14 00:56:34;;;;;;;9.37;7.20;;;6.70;93.00;;;;;;5073847;28;20440;-58
2023/02/14 00:59:01;;;;;;;7.67;6.87;;;6.70;93.00;;;;;;5073515;28;20455;-58
2023/02/14 01:01:28;;;;;;;7.07;6.40;;;6.60;92.90;;;;;;5073392;28;20498;-58
2023/02/14 01:03:57;;;;;;;10.60;6.50;;;6.60;92.90;;;;;;5073577;28;20514;-57
2023/02/14 01:06:24;;;;;;;7.43;6.47;;;6.50;92.70;;;;;;5073535;28;20452;-57
2023/02/14 01:08:51;;;;;;;7.87;6.80;;;6.50;92.70;;;;;;5073029;28;21007;-58
2023/02/14 01:11:19;;;;;;;10.27;6.93;;;6.40;92.40;;;;;;5073012;28;20983;-58
2023/02/14 01:13:47;;;;;;;9.37;6.73;;;6.40;92.40;;;;;;5073148;28;20784;-58
2023/02/14 01:16:16;;;;;;;7.07;6.23;;;6.40;92.40;;;;;;5073160;28;20542;-58
2023/02/14 01:18:44;;;;;;;7.37;5.63;;;6.30;92.40;;;;;;5073009;28;20956;-58
2023/02/14 01:21:18;;;;;;;7.60;6.13;;;6.30;92.40;;;;;;5073265;28;20452;-58
2023/02/14 01:23:46;;;;;;;9.40;7.30;;;6.20;92.40;;;;;;5073325;28;20437;-58
2023/02/14 01:26:13;;;;;;;10.50;7.60;;;6.20;92.60;;;;;;5073016;28;20480;-57
2023/02/14 01:28:40;;;;;;;8.67;6.90;;;6.20;92.90;;;;;;5072756;28;20477;-58
2023/02/14 01:31:10;;;;;;;7.70;6.50;;;6.20;93.00;;;;;;5074123;28;20445;-57
2023/02/14 01:33:37;;;;;;;10.53;7.90;;;6.20;93.20;;;;;;5074827;28;20452;-58
2023/02/14 01:36:05;;;;;;;13.17;8.17;;;6.20;93.70;;;;;;5076853;28;20555;-58
2023/02/14 01:38:33;;;;;;;10.27;7.70;;;6.20;93.60;;;;;;5077946;28;20429;-58
2023/02/14 01:41:00;;;;;;;10.37;8.40;;;6.20;93.70;;;;;;5077105;28;20455;-58
2023/02/14 01:43:27;;;;;;;9.07;7.57;;;6.20;93.90;;;;;;5076996;28;20447;-58
2023/02/14 01:45:54;;;;;;;8.50;7.27;;;6.20;94.00;;;;;;5076777;28;20475;-57
2023/02/14 01:48:22;;;;;;;9.43;7.57;;;6.20;94.00;;;;;;5076422;28;20490;-58
2023/02/14 01:50:52;;;;;;;8.83;6.63;;;6.10;93.80;;;;;;5076552;28;20982;-58
2023/02/14 01:53:23;;;;;;;24.63;6.77;;;6.10;93.70;;;;;;5076626;28;20860;-58
2023/02/14 01:55:56;;;;;;;8.37;6.13;;;6.10;93.60;;;;;;5076732;28;20539;-57
2023/02/14 01:58:27;;;;;;;9.30;6.23;;;6.00;93.50;;;;;;5077103;28;20428;-58
2023/02/14 02:00:56;;;;;;;8.83;6.80;;;6.00;93.50;;;;;;5076792;28;20441;-59
2023/02/14 02:03:26;;;;;;;9.70;7.10;;;6.00;93.70;;;;;;5076620;28;20440;-58
2023/02/14 02:05:57;;;;;;;8.33;6.60;;;6.00;94.00;;;;;;5076559;28;20468;-58
2023/02/14 02:08:24;;;;;;;8.93;7.87;;;6.00;94.00;;;;;;5076663;28;20464;-58
2023/02/14 02:10:52;;;;;;;9.40;7.73;;;6.00;94.20;;;;;;5076300;28;20799;-58
2023/02/14 02:13:20;;;;;;;12.23;8.20;;;6.00;94.50;;;;;;5076284;28;20457;-58
2023/02/14 02:15:58;;;;;;;12.10;7.67;;;6.00;95.00;;;;;;5076237;28;20471;-58
2023/02/14 02:18:36;;;;;;;10.37;8.17;;;6.10;95.40;;;;;;5076265;28;20471;-58
2023/02/14 02:21:47;;;;;;;15.40;9.40;;;6.20;95.60;;;;;;5076325;28;20444;-58
2023/02/14 02:24:26;;;;;;;10.67;8.23;;;6.20;95.80;;;;;;5076078;28;20547;-58
2023/02/14 02:27:21;;;;;;;15.93;9.20;;;6.20;96.00;;;;;;5075783;28;20800;-58
2023/02/14 02:30:23;;;;;;;12.00;8.60;;;6.30;96.30;;;;;;5076211;28;20465;-59
2023/02/14 02:33:27;;;;;;;10.60;8.47;;;6.30;96.40;;;;;;5076111;28;20436;-57
2023/02/14 02:36:07;;;;;;;13.83;9.33;;;6.40;96.50;;;;;;5075944;28;20469;-58
2023/02/14 02:38:48;;;;;;;11.60;8.70;;;6.40;96.60;;;;;;5075926;28;20443;-58
2023/02/14 02:41:24;;;;;;;14.53;9.27;;;6.40;96.70;;;;;;5075950;28;20448;-57
2023/02/14 02:44:03;;;;;;;11.40;8.50;;;6.40;96.70;;;;;;5075942;28;20429;-57
2023/02/14 02:46:48;;;;;;;11.30;9.97;;;6.40;96.80;;;;;;5075776;28;20452;-57
2023/02/14 02:55:29;;;;;;;14.13;9.50;;;6.50;96.80;;;;;;5075696;28;20918;-58
2023/02/14 02:57:56;;;;;;;12.30;9.23;;;6.50;96.80;;;;;;5075707;28;20429;-57
2023/02/14 03:00:24;;;;;;;13.80;9.23;;;6.50;96.80;;;;;;5075546;28;20433;-57
2023/02/14 03:05:41;;;;;;;12.57;9.13;;;6.50;96.80;;;;;;5075193;28;20563;-57
2023/02/14 03:08:09;;;;;;;15.23;10.57;;;6.50;96.80;;;;;;5075298;28;20456;-57
2023/02/14 03:10:38;;;;;;;13.70;10.47;;;6.50;96.80;;;;;;5074981;28;20448;-57
2023/02/14 03:13:22;;;;;;;12.47;9.47;;;6.40;96.90;;;;;;5075231;28;20456;-57
2023/02/14 03:16:24;;;;;;;12.00;8.80;;;6.40;96.90;;;;;;5075200;28;20865;-57
2023/02/14 03:19:15;;;;;;;13.17;9.27;;;6.40;96.90;;;;;;5074933;28;20912;-57
2023/02/14 03:21:46;;;;;;;12.63;8.87;;;6.40;96.90;;;;;;5075136;28;20795;-57
2023/02/14 03:24:24;;;;;;;11.83;9.20;;;6.40;96.90;;;;;;5075035;28;20425;-57
2023/02/14 03:26:57;;;;;;;11.60;9.10;;;6.40;97.00;;;;;;5074898;28;20429;-57
2023/02/14 03:29:29;;;;;;;11.20;8.90;;;6.40;97.10;;;;;;5074567;28;20972;-57
2023/02/14 03:32:00;;;;;;;12.83;10.00;;;6.40;97.10;;;;;;5075511;28;20437;-57
2023/02/14 03:34:32;;;;;;;12.47;9.70;;;6.40;97.20;;;;;;5074721;28;20471;-57
2023/02/14 03:37:03;;;;;;;14.40;10.40;;;6.40;97.40;;;;;;5074548;28;20811;-57
2023/02/14 03:39:40;;;;;;;14.03;10.07;;;6.40;97.50;;;;;;5074714;28;20514;-57
2023/02/14 03:42:12;;;;;;;14.27;11.17;;;6.40;97.70;;;;;;5074789;28;20437;-57
2023/02/14 03:44:41;;;;;;;16.77;10.97;;;6.40;97.80;;;;;;5074644;28;20477;-57
2023/02/14 03:47:11;;;;;;;16.27;10.50;;;6.40;97.90;;;;;;5074176;28;20858;-57
2023/02/14 03:49:43;;;;;;;13.47;9.67;;;6.40;97.90;;;;;;5074435;28;20464;-56
2023/02/14 03:52:12;;;;;;;13.20;9.60;;;6.40;97.80;;;;;;5075040;28;20487;-57
2023/02/14 03:54:41;;;;;;;15.07;10.43;;;6.40;97.80;;;;;;5074341;28;20477;-57
2023/02/14 03:57:14;;;;;;;15.63;10.53;;;6.40;98.00;;;;;;5073519;28;20461;-57
2023/02/14 03:59:42;;;;;;;12.63;10.47;;;6.40;98.00;;;;;;5074035;28;20975;-57
2023/02/14 04:02:12;;;;;;;16.20;11.20;;;6.40;98.10;;;;;;5074056;28;20901;-57
2023/02/14 04:04:43;;;;;;;14.47;10.40;;;6.40;98.10;;;;;;5074177;28;20817;-57
2023/02/14 04:07:12;;;;;;;14.43;10.20;;;6.40;98.20;;;;;;5074206;28;20784;-57
2023/02/14 04:09:40;;;;;;;16.07;10.50;;;6.40;98.30;;;;;;5073826;28;20838;-57
2023/02/14 04:12:07;;;;;;;13.00;10.40;;;6.40;98.30;;;;;;5073789;28;20808;-57
2023/02/14 04:14:34;;;;;;;13.33;10.13;;;6.40;98.50;;;;;;5074003;28;20481;-57
2023/02/14 04:19:45;;;;;;;12.67;10.10;;;6.40;98.60;;;;;;5073817;28;20395;-57
2023/02/14 04:22:12;;;;;;;12.80;10.70;;;6.40;98.60;;;;;;5073893;28;20797;-57
2023/02/14 04:24:40;;;;;;;13.47;11.37;;;6.40;98.60;;;;;;5073728;28;20464;-57
2023/02/14 04:27:10;;;;;;;13.90;10.40;;;6.40;98.60;;;;;;5073823;28;20447;-57
2023/02/14 04:29:38;;;;;;;14.60;10.53;;;6.40;98.60;;;;;;5073775;28;20473;-57
2023/02/14 04:32:07;;;;;;;14.63;10.80;;;6.40;99.00;;;;;;5073731;28;20487;-57
2023/02/14 04:34:33;;;;;;;12.07;9.40;;;6.40;98.80;;;;;;5073817;28;20473;-57
2023/02/14 04:37:00;;;;;;;15.33;11.10;;;6.40;98.90;;;;;;5073685;28;20457;-57
2023/02/14 04:39:27;;;;;;;13.10;10.87;;;6.40;99.00;;;;;;5073347;28;20456;-57
2023/02/14 04:41:55;;;;;;;15.97;11.93;;;6.40;99.10;;;;;;5073637;28;20448;-57
2023/02/14 04:44:23;;;;;;;12.50;10.47;;;6.40;99.10;;;;;;5073506;28;20472;-57
2023/02/14 04:46:49;;;;;;;12.20;10.33;;;6.50;99.20;;;;;;5073364;28;20472;-57
2023/02/14 04:49:16;;;;;;;12.17;10.10;;;6.50;99.10;;;;;;5073592;28;20578;-57
2023/02/14 04:51:43;;;;;;;15.13;11.33;;;6.50;99.10;;;;;;5073507;28;20463;-57
2023/02/14 04:54:10;;;;;;;13.77;11.10;;;6.40;99.00;;;;;;5073497;28;20456;-57
2023/02/14 04:56:37;;;;;;;14.73;10.33;;;6.50;99.00;;;;;;5073509;28;20868;-57
2023/02/14 04:59:05;;;;;;;14.90;11.03;;;6.40;99.00;;;;;;5073364;28;20440;-57
2023/02/14 05:01:32;;;;;;;13.80;11.20;;;6.50;99.00;;;;;;5073454;28;20437;-57
2023/02/14 05:03:59;;;;;;;15.03;11.60;;;6.50;99.00;;;;;;5073387;28;20824;-57
2023/02/14 05:06:26;;;;;;;16.37;12.33;;;6.50;99.00;;;;;;5073041;28;20835;-57
2023/02/14 05:08:52;;;;;;;14.37;11.53;;;6.50;99.00;;;;;;5073075;28;20460;-57
2023/02/14 05:11:19;;;;;;;16.30;12.13;;;6.50;98.90;;;;;;5073260;28;20457;-57
2023/02/14 05:13:46;;;;;;;16.83;11.77;;;6.50;98.80;;;;;;5073311;28;20440;-57
2023/02/14 05:16:14;;;;;;;12.60;10.50;;;6.40;98.70;;;;;;5072821;28;20997;-56
2023/02/14 05:18:40;;;;;;;14.40;11.77;;;6.40;98.70;;;;;;5073486;28;20433;-57
2023/02/14 05:21:07;;;;;;;14.13;11.67;;;6.40;98.90;;;;;;5073436;28;20428;-57
2023/02/14 05:23:34;;;;;;;15.00;11.90;;;6.40;99.00;;;;;;5073252;28;20445;-58
2023/02/14 05:26:00;;;;;;;18.40;12.30;;;6.30;98.90;;;;;;5073164;28;20456;-57
2023/02/14 05:28:27;;;;;;;12.80;10.57;;;6.40;99.00;;;;;;5073205;28;20449;-57
2023/02/14 05:30:55;;;;;;;13.77;11.10;;;6.40;99.00;;;;;;5073136;28;20492;-57
2023/02/14 05:33:23;;;;;;;15.10;11.20;;;6.40;99.00;;;;;;5073305;28;20846;-58
2023/02/14 05:35:50;;;;;;;13.30;10.90;;;6.40;98.80;;;;;;5073121;28;20472;-58
2023/02/14 05:38:17;;;;;;;19.33;12.87;;;6.40;98.70;;;;;;5073474;28;20449;-58
2023/02/14 05:40:44;;;;;;;15.30;12.40;;;6.30;98.60;;;;;;5073116;28;20472;-58
2023/02/14 05:43:11;;;;;;;17.03;11.50;;;6.30;98.40;;;;;;5073045;28;20452;-58
2023/02/14 05:45:38;;;;;;;15.07;11.67;;;6.30;98.40;;;;;;5072865;28;20465;-58
2023/02/14 05:48:06;;;;;;;19.03;12.23;;;6.30;98.30;;;;;;5072874;28;20465;-58
2023/02/14 05:50:34;;;;;;;13.73;12.10;;;6.30;98.30;;;;;;5072649;28;20530;-58
2023/02/14 05:53:01;;;;;;;19.77;11.83;;;6.30;98.30;;;;;;5072938;28;20448;-58
2023/02/14 05:55:27;;;;;;;18.70;13.00;;;6.20;98.20;;;;;;5072834;28;20464;-58
2023/02/14 05:57:54;;;;;;;13.33;11.77;;;6.20;98.30;;;;;;5072853;28;20452;-58
2023/02/14 06:00:22;;;;;;;19.10;13.10;;;6.20;98.40;;;;;;5072981;28;20858;-58
2023/02/14 06:02:49;;;;;;;20.53;14.63;;;6.20;98.50;;;;;;5072907;28;20429;-58
2023/02/14 06:05:17;;;;;;;18.10;12.67;;;6.20;98.60;;;;;;5072716;28;20522;-57
2023/02/14 06:07:49;;;;;;;18.07;13.27;;;6.20;98.70;;;;;;5072877;28;20459;-58
2023/02/14 06:10:16;;;;;;;21.10;13.47;;;6.20;98.80;;;;;;5072739;28;20477;-58
2023/02/14 06:12:43;;;;;;;15.97;12.87;;;6.10;99.30;;;;;;5072750;28;20436;-58
2023/02/14 06:15:10;;;;;;;18.53;13.83;;;6.10;99.10;;;;;;5072722;28;20468;-58
2023/02/14 06:17:36;;;;;;;19.17;13.10;;;6.10;99.10;;;;;;5072726;28;20451;-57
2023/02/14 06:20:03;;;;;;;17.43;13.50;;;6.10;99.10;;;;;;5073839;28;20893;-58
2023/02/14 06:22:30;;;;;;;22.87;14.67;;;6.10;99.30;;;;;;5076286;28;20463;-58
2023/02/14 06:24:58;;;;;;;16.97;13.87;;;6.10;99.30;;;;;;5076154;28;20460;-58
2023/02/14 06:27:25;;;;;;;21.37;14.87;;;6.10;99.30;;;;;;5076108;28;20433;-57
2023/02/14 06:29:51;;;;;;;21.13;14.90;;;6.10;99.30;;;;;;5075955;28;20487;-58
2023/02/14 06:32:18;;;;;;;17.83;13.70;;;6.10;99.20;;;;;;5076235;28;20449;-58
2023/02/14 06:34:45;;;;;;;24.23;15.10;;;6.10;99.20;;;;;;5076167;28;20479;-57
2023/02/14 06:37:11;;;;;;;21.53;15.00;;;6.10;99.20;;;;;;5076535;28;20793;-58
2023/02/14 06:39:38;;;;;;;17.50;13.43;;;6.10;99.00;;;;;;5076412;28;20456;-57
2023/02/14 06:42:06;;;;;;;23.10;14.17;;;6.10;99.00;;;;;;5076201;28;20480;-57
2023/02/14 06:44:33;;;;;;;20.00;14.80;;;6.10;99.00;;;;;;5076349;28;20480;-57
2023/02/14 06:46:59;;;;;;;18.93;14.60;;;6.10;99.10;;;;;;5076019;28;20953;-56
2023/02/14 06:49:27;;;;;;;21.70;14.57;;;6.10;99.00;;;;;;5076955;28;20439;-57
2023/02/14 06:51:54;;;;;;;13.27;11.27;;;6.00;98.90;;;;;;5076823;28;20453;-57
2023/02/14 06:54:20;;;;;;;11.17;9.63;;;6.00;98.70;;;;;;5076325;28;20460;-56
2023/02/14 06:56:47;;;;;;;14.47;10.30;;;5.90;98.30;;;;;;5075656;28;20456;-57
2023/02/14 06:59:15;;;;;;;10.40;9.30;;;5.80;97.80;;;;;;5075558;28;20429;-57
2023/02/14 07:01:42;;;;;;;17.70;10.67;;;5.80;97.30;;;;;;5075387;28;20440;-57
2023/02/14 07:04:09;;;;;;;11.97;8.97;;;5.70;96.90;;;;;;5075720;28;20444;-57
2023/02/14 07:06:36;;;;;;;11.70;9.17;;;5.60;96.40;;;;;;5075881;28;20437;-57
2023/02/14 07:09:03;;;;;;;13.40;9.87;;;5.50;96.00;;;;;;5075381;28;20941;-57
2023/02/14 07:11:30;;;;;;;11.90;9.40;;;5.40;95.70;;;;;;5075287;28;20479;-57
2023/02/14 07:13:56;;;;;;;11.10;9.03;;;5.30;95.60;;;;;;5075021;28;20936;-57
2023/02/14 07:16:25;;;;;;;13.17;9.67;;;5.30;95.50;;;;;;5075069;28;20490;-57
2023/02/14 07:18:52;;;;;;;14.07;10.50;;;5.20;95.30;;;;;;5075248;28;20437;-57
2023/02/14 07:21:19;;;;;;;14.53;10.07;;;5.20;95.30;;;;;;5074872;28;20939;-57
2023/02/14 07:23:48;;;;;;;11.83;9.87;;;5.10;95.30;;;;;;5075155;28;20847;-57
2023/02/14 07:26:16;;;;;;;11.37;9.50;;;5.00;95.20;;;;;;5074990;28;20472;-58
2023/02/14 07:28:43;;;;;;;13.57;9.63;;;5.00;95.20;;;;;;5074672;28;20941;-58
2023/02/14 07:31:10;;;;;;;11.50;9.53;;;5.00;95.30;;;;;;5074677;28;20483;-57
2023/02/14 07:33:38;;;;;;;17.63;9.80;;;5.00;95.50;;;;;;5074828;28;20448;-57
2023/02/14 07:36:06;;;;;;;13.87;10.10;;;5.00;95.60;;;;;;5074010;28;20947;-56
2023/02/14 07:38:32;;;;;;;13.67;9.67;;;5.00;95.70;;;;;;5055451;28;20442;-57
2023/02/14 07:40:59;;;;;;;13.70;10.60;;;5.00;95.70;;;;;;5054923;28;20454;-57
2023/02/14 07:43:26;;;;;;;15.60;10.90;;;4.90;95.70;;;;;;5054713;28;20480;-57
2023/02/14 07:45:53;;;;;;;18.07;11.27;;;4.90;95.80;;;;;;5054538;28;20543;-58
2023/02/14 07:48:20;;;;;;;14.13;10.63;;;4.90;96.10;;;;;;5054491;28;20839;-57
2023/02/14 07:50:48;;;;;;;13.23;10.03;;;4.90;96.50;;;;;;5054192;28;21005;-57
2023/02/14 07:53:15;;;;;;;13.23;10.77;;;4.90;96.70;;;;;;5054515;28;20462;-57
2023/02/14 07:55:41;;;;;;;23.13;11.90;;;4.90;96.90;;;;;;5054142;28;20472;-57
2023/02/14 07:58:08;;;;;;;17.30;12.00;;;5.00;97.10;;;;;;5054712;28;20430;-57
2023/02/14 08:00:35;;;;;;;18.63;12.30;;;5.00;97.30;;;;;;5054410;28;20457;-57
2023/02/14 08:03:01;;;;;;;15.87;12.77;;;5.00;97.50;;;;;;5054369;28;20446;-58
2023/02/14 08:05:28;;;;;;;20.20;15.20;;;5.10;97.80;;;;;;5054343;28;20851;-57
2023/02/14 08:07:56;;;;;;;25.70;15.30;;;5.20;98.10;;;;;;5054275;28;20465;-57
2023/02/14 08:10:23;;;;;;;25.47;17.90;;;5.20;98.30;;;;;;5054025;28;20489;-57
2023/02/14 08:12:57;;;;;;;23.30;16.80;;;5.30;98.70;;;;;;5054442;28;20450;-58
2023/02/14 08:18:08;;;;;;;23.83;17.23;;;5.50;99.10;;;;;;5054158;28;20456;-57
2023/02/14 08:20:35;;;;;;;26.80;17.43;;;5.60;99.20;;;;;;5054343;28;20442;-58
2023/02/14 08:23:03;;;;;;;25.93;17.40;;;5.70;99.30;;;;;;5053635;28;20865;-56
2023/02/14 08:25:30;;;;;;;31.10;20.07;;;5.70;99.70;;;;;;5053910;28;20465;-58
2023/02/14 08:27:57;;;;;;;24.83;18.13;;;5.80;99.90;;;;;;5053570;28;20446;-58
2023/02/14 08:30:24;;;;;;;23.20;17.10;;;5.90;99.90;;;;;;5053771;28;20485;-58
2023/02/14 08:32:50;;;;;;;34.17;20.77;;;6.00;99.90;;;;;;5053808;28;20540;-59
2023/02/14 08:35:17;;;;;;;24.70;18.17;;;6.00;99.90;;;;;;5053769;28;20473;-57
2023/02/14 08:37:44;;;;;;;29.13;19.60;;;6.10;99.90;;;;;;5053878;28;20458;-55
2023/02/14 08:40:12;;;;;;;27.57;19.67;;;6.10;99.90;;;;;;5053996;28;20453;-57
2023/02/14 08:42:39;;;;;;;30.60;19.30;;;6.20;99.90;;;;;;5053230;28;20981;-53
2023/02/14 08:45:06;;;;;;;29.80;19.93;;;6.30;99.90;;;;;;5053600;28;20481;-53
2023/02/14 08:47:37;;;;;;;26.20;18.07;;;6.30;99.90;;;;;;5053302;28;20548;-56
2023/02/14 08:50:04;;;;;;;31.30;19.00;;;6.40;99.90;;;;;;5053471;28;20469;-54
2023/02/14 08:52:31;;;;;;;30.10;18.73;;;6.40;99.90;;;;;;5053177;28;20801;-56
2023/02/14 08:54:58;;;;;;;23.47;17.40;;;6.50;99.90;;;;;;5053365;28;20465;-57
2023/02/14 08:57:26;;;;;;;26.60;18.77;;;6.60;99.90;;;;;;5053437;28;20456;-56
2023/02/14 08:59:53;;;;;;;24.23;17.90;;;6.60;99.90;;;;;;5053476;28;20488;-57
2023/02/14 09:02:20;;;;;;;28.10;17.60;;;6.70;99.90;;;;;;5053406;28;20449;-57
2023/02/14 09:04:47;;;;;;;27.00;18.70;;;6.80;99.90;;;;;;5053314;28;20488;-57
2023/02/14 09:07:14;;;;;;;28.40;18.53;;;6.80;99.90;;;;;;5053333;28;20468;-55
2023/02/14 09:09:41;;;;;;;23.67;17.47;;;6.90;99.90;;;;;;5052951;28;20950;-57
2023/02/14 09:12:10;;;;;;;28.33;19.77;;;7.00;99.90;;;;;;5053192;28;20481;-57
2023/02/14 09:14:39;;;;;;;27.00;19.47;;;7.00;99.90;;;;;;5053155;28;20469;-57
2023/02/14 09:17:06;;;;;;;27.93;19.93;;;7.10;99.90;;;;;;5053168;28;20454;-58
2023/02/14 09:19:33;;;;;;;26.20;18.23;;;7.20;99.90;;;;;;5053247;28;20480;-58
2023/02/14 09:22:02;;;;;;;25.80;18.70;;;7.30;99.90;;;;;;5053236;28;20445;-58
2023/02/14 09:24:30;;;;;;;27.00;18.47;;;7.30;99.90;;;;;;5053131;28;20473;-58
2023/02/14 09:26:57;;;;;;;27.80;19.57;;;7.40;99.90;;;;;;5052872;28;20448;-58
2023/02/14 09:29:24;;;;;;;27.10;19.70;;;7.40;99.90;;;;;;5053175;28;20492;-58
2023/02/14 09:31:53;;;;;;;30.77;21.40;;;7.50;99.90;;;;;;5053854;28;20490;-58
2023/02/14 09:37:05;;;;;;;24.77;19.00;;;7.70;99.90;;;;;;5053009;28;20933;-58
2023/02/14 09:39:31;;;;;;;29.13;20.10;;;7.70;99.80;;;;;;5053070;28;20457;-58
2023/02/14 09:42:20;;;;;;;28.20;20.80;;;7.80;99.60;;;;;;5053066;28;20429;-58
2023/02/14 09:44:51;;;;;;;27.17;19.20;;;7.90;99.60;;;;;;5052970;28;20527;-58
2023/02/14 09:47:23;;;;;;;30.20;20.80;;;8.00;99.30;;;;;;5052776;28;20492;-58
2023/02/14 09:49:52;;;;;;;36.00;22.13;;;8.10;99.30;;;;;;5052936;28;20453;-58
2023/02/14 09:52:22;;;;;;;33.20;21.77;;;8.20;99.20;;;;;;5052519;28;20860;-58
2023/02/14 09:54:56;;;;;;;31.13;20.50;;;8.30;99.10;;;;;;5054010;28;20469;-58
2023/02/14 09:57:31;;;;;;;25.20;19.10;;;8.40;99.10;;;;;;5056503;28;20914;-58
2023/02/14 10:00:06;;;;;;;32.10;20.97;;;8.40;98.80;;;;;;5056452;28;20799;-58
2023/02/14 10:02:48;;;;;;;32.00;22.37;;;8.50;98.60;;;;;;5056690;28;20441;-58
2023/02/14 10:05:20;;;;;;;27.80;22.20;;;8.60;98.50;;;;;;5056185;28;20981;-58
2023/02/14 10:07:58;;;;;;;29.27;21.87;;;8.80;98.50;;;;;;5056655;28;20503;-58
2023/02/14 10:10:29;;;;;;;34.97;22.03;;;8.80;98.40;;;;;;5056502;28;20469;-58
2023/02/14 10:13:02;;;;;;;30.33;21.63;;;9.00;98.40;;;;;;5056148;28;20898;-58
2023/02/14 10:15:34;;;;;;;31.63;22.63;;;9.00;98.00;;;;;;5056386;28;20485;-58
2023/02/14 10:18:09;;;;;;;27.70;20.80;;;9.10;97.90;;;;;;5056419;28;20436;-58
2023/02/14 10:20:40;;;;;;;29.30;21.70;;;9.30;97.70;;;;;;5056940;28;20433;-58
2023/02/14 10:23:27;;;;;;;28.87;21.10;;;9.40;97.70;;;;;;5056287;28;20436;-58
2023/02/14 10:25:57;;;;;;;29.90;20.50;;;9.60;97.20;;;;;;5056186;28;20465;-58
2023/02/14 10:28:31;;;;;;;28.43;21.10;;;9.70;96.80;;;;;;5055989;28;20472;-58
2023/02/14 10:31:15;;;;;;;27.90;20.87;;;9.80;96.90;;;;;;5056014;28;20564;-58
2023/02/14 10:33:49;;;;;;;26.07;19.83;;;10.00;96.40;;;;;;5054360;28;20468;-58
2023/02/14 10:36:26;;;;;;;27.97;21.57;;;10.20;95.90;;;;;;5056034;28;20474;-58
2023/02/14 10:39:01;;;;;;;23.57;19.20;;;10.40;95.50;;;;;;5056053;28;20434;-58
2023/02/14 10:41:33;;;;;;;27.77;21.63;;;10.50;95.30;;;;;;5056218;28;20425;-58
2023/02/14 10:44:15;;;;;;;26.33;20.30;;;10.80;95.10;;;;;;5056201;28;20438;-58
2023/02/14 10:46:49;;;;;;;28.77;20.97;;;11.00;94.60;;;;;;5055886;28;20425;-58
2023/02/14 10:49:39;;;;;;;27.93;20.10;;;11.30;94.10;;;;;;5055469;28;20941;-58
2023/02/14 10:52:15;;;;;;;23.87;19.10;;;11.70;93.40;;;;;;5055381;28;20961;-58
2023/02/14 10:54:44;;;;;;;26.60;17.90;;;12.20;92.30;;;;;;5055636;28;20473;-58
2023/02/14 10:57:15;;;;;;;27.73;19.70;;;12.70;90.80;;;;;;5055349;28;20961;-58
2023/02/14 10:59:51;;;;;;;25.27;20.00;;;13.30;88.80;;;;;;5055664;28;20484;-58
2023/02/14 11:02:24;;;;;;;25.33;17.97;;;13.80;85.70;;;;;;5055691;28;20487;-58
2023/02/14 11:04:52;;;;;;;25.30;19.97;;;13.90;80.30;;;;;;5055225;28;20474;-59
2023/02/14 11:07:21;;;;;;;25.20;19.27;;;13.90;79.90;;;;;;5055086;28;20804;-59
2023/02/14 11:09:48;;;;;;;23.83;19.40;;;13.90;80.70;;;;;;5055398;28;20449;-58
2023/02/14 11:12:33;;;;;;;26.80;20.50;;;14.00;81.20;;;;;;5054976;28;20489;-58
2023/02/14 11:15:11;;;;;;;25.63;20.47;;;14.10;81.10;;;;;;5055294;28;20469;-59
2023/02/14 11:17:38;;;;;;;24.90;19.57;;;14.20;77.70;;;;;;5055307;28;20499;-59
2023/02/14 11:20:23;;;;;;;23.47;19.07;;;14.20;76.70;;;;;;5055416;28;20440;-59
2023/02/14 11:22:50;;;;;;;22.93;19.37;;;14.40;78.90;;;;;;5055220;28;20428;-59
2023/02/14 11:25:21;;;;;;;24.07;18.33;;;14.60;77.70;;;;;;5055090;28;20470;-59
2023/02/14 11:27:50;;;;;;;20.60;18.10;;;15.00;75.00;;;;;;5054808;28;20433;-59
2023/02/14 11:30:25;;;;;;;28.17;19.70;;;15.70;72.60;;;;;;5055060;28;20449;-59
2023/02/14 11:32:55;;;;;;;23.00;18.77;;;16.40;69.60;;;;;;5055022;28;20469;-59
2023/02/14 11:35:27;;;;;;;20.87;18.27;;;17.20;66.00;;;;;;5054962;28;20462;-59
2023/02/14 11:37:56;;;;;;;21.33;18.40;;;17.90;63.10;;;;;;5055187;28;20456;-57
2023/02/14 11:40:28;;;;;;;23.33;19.70;;;18.60;59.40;;;;;;5055545;28;20445;-58
2023/02/14 11:42:58;;;;;;;21.57;18.30;;;19.30;56.90;;;;;;5055587;28;20501;-59
2023/02/14 11:45:33;;;;;;;22.30;19.80;;;19.80;54.90;;;;;;5054777;28;20473;-59
2023/02/14 11:48:08;;;;;;;20.93;18.13;;;20.30;51.50;;;;;;5054768;28;20472;-59
2023/02/14 11:50:38;;;;;;;20.93;18.70;;;20.80;50.00;;;;;;5055465;28;20444;-60
2023/02/14 11:53:10;;;;;;;22.53;20.17;;;21.20;48.70;;;;;;5054632;28;20449;-60
2023/02/14 11:55:36;;;;;;;23.57;21.07;;;21.50;45.30;;;;;;5054530;28;20471;-60
2023/02/14 11:58:05;;;;;;;22.60;20.23;;;21.80;44.90;;;;;;5054595;28;20497;-59
2023/02/14 12:00:32;;;;;;;23.70;21.17;;;22.10;43.70;;;;;;5054513;28;20476;-59
2023/02/14 12:03:02;;;;;;;20.20;18.10;;;22.40;44.00;;;;;;5054372;28;20442;-57
2023/02/14 12:05:31;;;;;;;21.60;19.43;;;22.70;43.20;;;;;;5054361;28;20505;-57
2023/02/14 12:08:02;;;;;;;24.33;19.30;;;23.00;42.40;;;;;;5054311;28;20456;-57
2023/02/14 12:10:30;;;;;;;24.90;18.27;;;23.30;41.00;;;;;;5054389;28;20433;-57
2023/02/14 12:13:00;;;;;;;20.97;18.87;;;23.60;39.80;;;;;;5054175;28;20489;-57
2023/02/14 12:15:39;;;;;;;21.90;18.90;;;23.90;39.70;;;;;;5054150;28;20465;-58
2023/02/14 12:18:46;;;;;;;21.53;19.20;;;24.20;38.50;;;;;;5053440;28;20438;-57
2023/02/14 12:21:30;;;;;;;21.57;19.37;;;24.40;37.40;;;;;;5054077;28;20425;-57
2023/02/14 12:24:05;;;;;;;21.20;19.20;;;24.60;38.00;;;;;;5053983;28;20824;-57
2023/02/14 12:26:35;;;;;;;20.47;18.47;;;24.90;37.60;;;;;;5053971;28;20441;-58
2023/02/14 12:29:09;;;;;;;23.23;19.43;;;25.10;36.70;;;;;;5053904;28;20429;-57
2023/02/14 12:31:36;;;;;;;22.43;19.67;;;25.40;36.20;;;;;;5053790;28;20473;-58
2023/02/14 12:34:03;;;;;;;20.97;18.77;;;25.70;35.90;;;;;;5053733;28;20457;-58
2023/02/14 12:36:44;;;;;;;20.93;18.83;;;26.00;35.30;;;;;;5053795;28;20817;-58
2023/02/14 12:39:21;;;;;;;22.40;19.37;;;26.30;34.70;;;;;;5053777;28;20441;-58
2023/02/14 12:42:01;;;;;;;21.07;18.90;;;26.50;34.00;;;;;;5053693;28;20469;-58
2023/02/14 12:44:38;;;;;;;21.70;19.50;;;26.80;33.60;;;;;;5053470;28;20981;-58
2023/02/14 12:47:17;;;;;;;24.83;20.53;;;27.00;32.60;;;;;;5053690;28;20461;-58
2023/02/14 12:50:27;;;;;;;22.30;20.07;;;27.20;32.10;;;;;;5053675;28;20520;-58
2023/02/14 12:53:21;;;;;;;21.60;19.60;;;27.40;31.40;;;;;;5053338;28;20859;-57
2023/02/14 12:56:06;;;;;;;21.90;19.80;;;27.40;30.70;;;;;;5046436;28;20469;-58
2023/02/14 12:58:43;;;;;;;19.23;17.40;;;27.50;30.70;;;;;;5053499;28;20483;-57
2023/02/14 13:01:48;;;;;;;22.00;19.13;;;27.60;30.50;;;;;;5053471;28;20425;-58
2023/02/14 13:04:34;;;;;;;21.97;19.67;;;27.70;30.20;;;;;;5053278;28;20518;-58
2023/02/14 13:07:09;;;;;;;20.63;18.60;;;27.80;30.20;;;;;;5053508;28;20433;-57
2023/02/14 13:09:44;;;;;;;20.30;18.37;;;27.90;30.00;;;;;;5053508;28;20456;-58
2023/02/14 13:12:24;;;;;;;19.60;17.67;;;28.00;30.00;;;;;;5053351;28;20559;-58
2023/02/14 13:15:03;;;;;;;20.77;18.57;;;28.20;30.10;;;;;;5053442;28;20506;-58
2023/02/14 13:17:36;;;;;;;20.77;18.77;;;28.40;29.90;;;;;;5054029;28;20433;-58